sensor_id;sensor_type;location;lat;lon;timestamp;pressure;altitude;pressure_sealevel;temperature;humidity
55664;BME280;41540;57.880;12.164;2022-09-21T00:01:53;100963.44;;;3.59;nan
55664;BME280;41540;57.880;12.164;2022-09-21T00:11:54;100992.38;;;3.56;nan
55664;BME280;41540;57.880;12.164;2022-09-21T00:21:54;100688.53;;;1.76;nan
55664;BME280;41540;57.880;12.164;2022-09-21T00:31:55;100874.28;;;2.86;nan
55664;BME280;41540;57.880;12.164;2022-09-21T00:41:55;100933.09;;;3.01;nan
55664;BME280;41540;57.880;12.164;2022-09-21T00:51:57;100888.09;;;2.73;nan
55664;BME280;41540;57.880;12.164;2022-09-21T01:01:59;100983.00;;;3.09;nan
55664;BME280;41540;57.880;12.164;2022-09-21T01:32:56;101000.97;;;2.94;nan
55664;BME280;41540;57.880;12.164;2022-09-21T01:43:00;101007.53;;;2.74;nan
55664;BME280;41540;57.880;12.164;2022-09-21T01:53:10;101031.47;;;2.75;nan
55664;BME280;41540;57.880;12.164;2022-09-21T02:03:17;101014.41;;;2.75;nan
55664;BME280;41540;57.880;12.164;2022-09-21T02:13:22;100826.38;;;1.60;nan
55664;BME280;41540;57.880;12.164;2022-09-21T02:23:39;100903.28;;;2.09;nan
55664;BME280;41540;57.880;12.164;2022-09-21T02:33:49;100970.44;;;2.51;nan
55664;BME280;41540;57.880;12.164;2022-09-21T02:44:13;100915.19;;;2.08;nan
55664;BME280;41540;57.880;12.164;2022-09-21T02:54:18;100924.25;;;2.18;nan
55664;BME280;41540;57.880;12.164;2022-09-21T03:04:21;100951.50;;;2.18;nan
55664;BME280;41540;57.880;12.164;2022-09-21T03:14:22;100994.50;;;2.25;nan
55664;BME280;41540;57.880;12.164;2022-09-21T03:24:22;100977.06;;;2.18;nan
55664;BME280;41540;57.880;12.164;2022-09-21T03:34:41;100997.88;;;2.24;nan
55664;BME280;41540;57.880;12.164;2022-09-21T03:44:41;100968.75;;;1.92;nan
55664;BME280;41540;57.880;12.164;2022-09-21T03:54:42;100955.81;;;2.04;nan
55664;BME280;41540;57.880;12.164;2022-09-21T04:04:42;100974.66;;;2.06;nan
55664;BME280;41540;57.880;12.164;2022-09-21T04:14:42;100985.78;;;2.06;nan
55664;BME280;41540;57.880;12.164;2022-09-21T04:24:43;100885.53;;;1.52;nan
55664;BME280;41540;57.880;12.164;2022-09-21T04:34:44;100880.78;;;1.44;nan
55664;BME280;41540;57.880;12.164;2022-09-21T04:44:44;100947.88;;;1.84;nan
55664;BME280;41540;57.880;12.164;2022-09-21T04:54:45;101011.59;;;2.11;nan
55664;BME280;41540;57.880;12.164;2022-09-21T05:04:46;100975.19;;;2.15;nan
55664;BME280;41540;57.880;12.164;2022-09-21T05:14:49;101049.34;;;2.89;nan
55664;BME280;41540;57.880;12.164;2022-09-21T05:24:49;101034.66;;;3.02;nan
55664;BME280;41540;57.880;12.164;2022-09-21T05:34:55;101056.28;;;3.07;nan
55664;BME280;41540;57.880;12.164;2022-09-21T05:44:59;101012.91;;;2.93;nan
55664;BME280;41540;57.880;12.164;2022-09-21T06:05:20;101042.25;;;3.79;nan
55664;BME280;41540;57.880;12.164;2022-09-21T06:15:20;100951.22;;;3.37;nan
55664;BME280;41540;57.880;12.164;2022-09-21T06:25:21;100891.56;;;3.56;nan
55664;BME280;41540;57.880;12.164;2022-09-21T06:35:21;100928.41;;;4.62;nan
55664;BME280;41540;57.880;12.164;2022-09-21T06:45:22;100932.59;;;5.55;nan
55664;BME280;41540;57.880;12.164;2022-09-21T06:55:23;100940.50;;;5.98;nan
55664;BME280;41540;57.880;12.164;2022-09-21T07:05:24;100991.03;;;6.59;nan
55664;BME280;41540;57.880;12.164;2022-09-21T07:15:24;100868.84;;;6.29;nan
55664;BME280;41540;57.880;12.164;2022-09-21T07:25:26;100967.38;;;7.36;nan
55664;BME280;41540;57.880;12.164;2022-09-21T07:35:26;100897.94;;;7.40;nan
55664;BME280;41540;57.880;12.164;2022-09-21T07:45:26;100965.06;;;8.96;nan
55664;BME280;41540;57.880;12.164;2022-09-21T07:55:27;100989.38;;;9.62;nan
55664;BME280;41540;57.880;12.164;2022-09-21T08:05:28;100935.50;;;10.45;nan
55664;BME280;41540;57.880;12.164;2022-09-21T08:15:28;101181.56;;;17.77;nan
55664;BME280;41540;57.880;12.164;2022-09-21T08:25:28;101327.44;;;19.93;nan
55664;BME280;41540;57.880;12.164;2022-09-21T08:35:30;101315.53;;;19.45;nan
55664;BME280;41540;57.880;12.164;2022-09-21T08:45:39;101277.91;;;20.35;nan
55664;BME280;41540;57.880;12.164;2022-09-21T08:55:41;101264.94;;;19.16;nan
55664;BME280;41540;57.880;12.164;2022-09-21T09:36:45;101288.63;;;15.25;nan
55664;BME280;41540;57.880;12.164;2022-09-21T09:46:48;101389.31;;;15.03;nan
55664;BME280;41540;57.880;12.164;2022-09-21T09:56:54;101389.72;;;16.30;nan
55664;BME280;41540;57.880;12.164;2022-09-21T10:06:54;101372.78;;;17.31;nan
55664;BME280;41540;57.880;12.164;2022-09-21T10:17:00;101288.97;;;17.22;nan
55664;BME280;41540;57.880;12.164;2022-09-21T10:37:37;101261.03;;;17.19;nan
55664;BME280;41540;57.880;12.164;2022-09-21T10:47:57;101427.00;;;17.64;nan
55664;BME280;41540;57.880;12.164;2022-09-21T10:57:58;101771.84;;;17.48;nan
55664;BME280;41540;57.880;12.164;2022-09-21T11:08:18;102064.03;;;17.22;nan
55664;BME280;41540;57.880;12.164;2022-09-21T11:18:33;102111.09;;;17.17;nan
55664;BME280;41540;57.880;12.164;2022-09-21T11:29:46;102096.63;;;16.34;nan
55664;BME280;41540;57.880;12.164;2022-09-21T11:39:38;102175.94;;;16.82;nan
55664;BME280;41540;57.880;12.164;2022-09-21T11:50:04;102007.91;;;15.50;nan
55664;BME280;41540;57.880;12.164;2022-09-21T12:00:14;102123.78;;;14.81;nan
55664;BME280;41540;57.880;12.164;2022-09-21T12:10:38;101432.03;;;15.11;nan
55664;BME280;41540;57.880;12.164;2022-09-21T12:30:48;101571.94;;;16.39;nan
55664;BME280;41540;57.880;12.164;2022-09-21T12:41:14;101845.28;;;15.60;nan
55664;BME280;41540;57.880;12.164;2022-09-21T13:01:38;101814.84;;;14.70;nan
55664;BME280;41540;57.880;12.164;2022-09-21T13:11:56;101291.88;;;13.76;nan
55664;BME280;41540;57.880;12.164;2022-09-21T13:22:10;101364.94;;;13.35;nan
55664;BME280;41540;57.880;12.164;2022-09-21T13:52:35;101258.59;;;13.07;nan
55664;BME280;41540;57.880;12.164;2022-09-21T14:03:00;101374.00;;;14.62;nan
55664;BME280;41540;57.880;12.164;2022-09-21T14:13:06;101253.19;;;14.65;nan
55664;BME280;41540;57.880;12.164;2022-09-21T14:33:33;101345.00;;;14.40;nan
55664;BME280;41540;57.880;12.164;2022-09-21T14:43:35;101319.19;;;13.48;nan
55664;BME280;41540;57.880;12.164;2022-09-21T14:53:45;101368.75;;;13.52;nan
55664;BME280;41540;57.880;12.164;2022-09-21T15:03:59;101345.00;;;12.91;nan
55664;BME280;41540;57.880;12.164;2022-09-21T15:24:31;101283.22;;;12.38;nan
55664;BME280;41540;57.880;12.164;2022-09-21T15:34:33;101132.06;;;11.38;nan
55664;BME280;41540;57.880;12.164;2022-09-21T15:44:35;101241.72;;;12.02;nan
55664;BME280;41540;57.880;12.164;2022-09-21T15:54:54;101208.78;;;11.64;nan
55664;BME280;41540;57.880;12.164;2022-09-21T16:04:56;101241.25;;;11.82;nan
55664;BME280;41540;57.880;12.164;2022-09-21T16:15:04;101227.06;;;11.67;nan
55664;BME280;41540;57.880;12.164;2022-09-21T16:25:58;101235.06;;;11.77;nan
55664;BME280;41540;57.880;12.164;2022-09-21T16:35:50;101231.78;;;11.84;nan
55664;BME280;41540;57.880;12.164;2022-09-21T16:45:51;101148.22;;;11.26;nan
55664;BME280;41540;57.880;12.164;2022-09-21T16:55:54;101125.63;;;10.85;nan
55664;BME280;41540;57.880;12.164;2022-09-21T17:05:55;101166.50;;;10.96;nan
55664;BME280;41540;57.880;12.164;2022-09-21T17:15:56;101145.03;;;10.66;nan
55664;BME280;41540;57.880;12.164;2022-09-21T17:25:57;101082.94;;;10.07;nan
55664;BME280;41540;57.880;12.164;2022-09-21T17:35:57;101199.03;;;10.52;nan
55664;BME280;41540;57.880;12.164;2022-09-21T17:56:22;101103.06;;;9.57;nan
55664;BME280;41540;57.880;12.164;2022-09-21T18:06:32;101158.53;;;9.67;nan
55664;BME280;41540;57.880;12.164;2022-09-21T18:26:55;101031.22;;;8.91;nan
55664;BME280;41540;57.880;12.164;2022-09-21T18:37:31;101127.78;;;9.49;nan
55664;BME280;41540;57.880;12.164;2022-09-21T18:47:43;101108.84;;;9.21;nan
55664;BME280;41540;57.880;12.164;2022-09-21T18:57:47;101014.09;;;8.67;nan
55664;BME280;41540;57.880;12.164;2022-09-21T19:08:09;100982.22;;;8.15;nan
55664;BME280;41540;57.880;12.164;2022-09-21T19:38:28;101034.69;;;7.90;nan
55664;BME280;41540;57.880;12.164;2022-09-21T19:48:29;101003.97;;;7.50;nan
55664;BME280;41540;57.880;12.164;2022-09-21T19:58:35;100968.19;;;7.12;nan
55664;BME280;41540;57.880;12.164;2022-09-21T20:09:16;101087.34;;;7.73;nan
55664;BME280;41540;57.880;12.164;2022-09-21T20:19:30;101087.19;;;7.46;nan
55664;BME280;41540;57.880;12.164;2022-09-21T20:29:33;101078.28;;;7.16;nan
55664;BME280;41540;57.880;12.164;2022-09-21T20:39:33;101036.47;;;7.01;nan
55664;BME280;41540;57.880;12.164;2022-09-21T20:49:33;101038.97;;;6.77;nan
55664;BME280;41540;57.880;12.164;2022-09-21T20:59:34;101092.03;;;6.94;nan
55664;BME280;41540;57.880;12.164;2022-09-21T21:09:34;101074.63;;;6.68;nan
55664;BME280;41540;57.880;12.164;2022-09-21T21:19:34;100955.06;;;6.19;nan
55664;BME280;41540;57.880;12.164;2022-09-21T21:29:35;100904.13;;;5.91;nan
55664;BME280;41540;57.880;12.164;2022-09-21T21:39:35;101019.25;;;6.56;nan
55664;BME280;41540;57.880;12.164;2022-09-21T21:49:35;100920.94;;;6.02;nan
55664;BME280;41540;57.880;12.164;2022-09-21T21:59:36;100912.63;;;5.69;nan
55664;BME280;41540;57.880;12.164;2022-09-21T22:09:37;101047.72;;;6.40;nan
55664;BME280;41540;57.880;12.164;2022-09-21T22:19:37;100983.06;;;6.11;nan
55664;BME280;41540;57.880;12.164;2022-09-21T22:29:38;100900.09;;;5.76;nan
55664;BME280;41540;57.880;12.164;2022-09-21T22:39:39;100961.47;;;5.69;nan
55664;BME280;41540;57.880;12.164;2022-09-21T22:49:39;100961.69;;;5.73;nan
55664;BME280;41540;57.880;12.164;2022-09-21T22:59:39;100890.94;;;5.42;nan
55664;BME280;41540;57.880;12.164;2022-09-21T23:09:40;101012.16;;;6.10;nan
55664;BME280;41540;57.880;12.164;2022-09-21T23:19:40;100906.38;;;5.62;nan
55664;BME280;41540;57.880;12.164;2022-09-21T23:29:40;101003.50;;;6.08;nan
55664;BME280;41540;57.880;12.164;2022-09-21T23:39:41;101014.78;;;6.12;nan
55664;BME280;41540;57.880;12.164;2022-09-21T23:49:41;100999.72;;;6.00;nan
55664;BME280;41540;57.880;12.164;2022-09-21T23:59:42;100806.56;;;4.92;nan
